Time;durP1;ratioP1;P1;durP2;ratioP2;P2;SDS_P1;SDS_P2;PMS_P1;PMS_P2;Temp;Humidity;BMP_temperature;BMP_pressure;BME280_temperature;BME280_humidity;BME280_pressure;Samples;Min_cycle;Max_cycle;Signal;HPM_P1;HPM_P2
2023/05/22 00:01:43;;;;;;;1.50;1.50;;;;;;;16.72;65.52;96642.53;5045177;28;20059;-60
2023/05/22 00:04:12;;;;;;;1.58;1.58;;;;;;;16.94;65.68;96669.00;5060214;28;20548;-60
2023/05/22 00:06:42;;;;;;;1.60;1.60;;;;;;;17.09;65.98;96681.56;5043635;28;20056;-60
2023/05/22 00:09:08;;;;;;;1.70;1.70;;;;;;;17.12;66.00;96675.16;5045101;28;20614;-59
2023/05/22 00:11:35;;;;;;;1.60;1.60;;;;;;;17.02;65.56;96687.28;5044826;28;20142;-61
2023/05/22 00:14:02;;;;;;;1.73;1.73;;;;;;;17.07;65.80;96675.63;5045335;28;20503;-60
2023/05/22 00:16:29;;;;;;;1.52;1.52;;;;;;;17.07;65.04;96670.03;5045013;28;20056;-61
2023/05/22 00:18:56;;;;;;;1.75;1.75;;;;;;;17.12;64.82;96669.56;5045470;28;20132;-60
2023/05/22 00:21:23;;;;;;;1.75;1.75;;;;;;;17.21;65.03;96667.03;5043232;28;20076;-61
2023/05/22 00:23:50;;;;;;;1.77;1.77;;;;;;;17.18;64.11;96673.47;5060085;28;20072;-60
2023/05/22 00:26:16;;;;;;;1.70;1.70;;;;;;;17.14;64.30;96661.50;5044593;28;20045;-60
2023/05/22 00:28:43;;;;;;;1.80;1.80;;;;;;;17.26;64.75;96670.13;5044271;28;20595;-59
2023/05/22 00:31:10;;;;;;;1.70;1.70;;;;;;;16.77;65.30;96580.53;5044250;28;20136;-59
2023/05/22 00:33:37;;;;;;;1.75;1.75;;;;;;;17.18;65.79;96673.47;5058992;28;20107;-60
2023/05/22 00:36:04;;;;;;;1.80;1.80;;;;;;;17.09;65.26;96667.59;5044323;28;20502;-60
2023/05/22 00:38:33;;;;;;;1.58;1.58;;;;;;;17.15;65.73;96680.69;5042988;28;20060;-61
2023/05/22 00:41:01;;;;;;;1.50;1.50;;;;;;;17.02;66.67;96682.50;5044349;28;20144;-59
2023/05/22 00:43:27;;;;;;;1.55;1.55;;;;;;;16.98;67.57;96686.53;5044858;28;20055;-60
2023/05/22 00:45:54;;;;;;;1.50;1.50;;;;;;;16.88;67.24;96684.69;5059637;28;20067;-60
2023/05/22 00:48:22;;;;;;;1.73;1.73;;;;;;;16.82;67.99;96669.59;5044484;28;20049;-60
2023/05/22 00:50:54;;;;;;;1.50;1.50;;;;;;;16.75;67.98;96697.63;5044023;28;20061;-59
2023/05/22 00:53:23;;;;;;;1.60;1.60;;;;;;;16.06;68.50;96620.53;5044171;28;20064;-59
2023/05/22 00:55:51;;;;;;;1.50;1.50;;;;;;;16.57;67.65;96690.25;5044150;28;20555;-60
2023/05/22 00:58:18;;;;;;;1.42;1.42;;;;;;;16.35;67.54;96633.00;5059607;28;20053;-59
2023/05/22 01:00:47;;;;;;;1.60;1.60;;;;;;;16.81;67.84;96681.97;5044367;28;20080;-59
2023/05/22 01:03:15;;;;;;;1.60;1.60;;;;;;;16.79;67.94;96692.81;5044319;28;20049;-60
2023/05/22 01:05:42;;;;;;;1.40;1.40;;;;;;;16.70;68.01;96664.53;5044582;28;20051;-60
2023/05/22 01:08:10;;;;;;;1.60;1.60;;;;;;;16.75;67.77;96689.25;5044176;28;20072;-61
2023/05/22 01:10:38;;;;;;;1.67;1.67;;;;;;;16.84;67.68;96687.53;5059533;28;20151;-60
2023/05/22 01:13:08;;;;;;;1.45;1.45;;;;;;;16.87;68.08;96680.28;5044076;28;20048;-60
2023/05/22 01:15:52;;;;;;;1.55;1.55;;;;;;;16.82;68.21;96672.38;5044150;28;20059;-60
2023/05/22 01:18:25;;;;;;;1.27;1.27;;;;;;;16.92;68.69;96677.03;5044264;28;20072;-60
2023/05/22 01:21:21;;;;;;;1.60;1.60;;;;;;;16.78;68.94;96678.03;5042064;28;20053;-59
2023/05/22 01:24:12;;;;;;;1.75;1.75;;;;;;;16.67;69.94;96687.75;5035147;28;20048;-61
2023/05/22 01:27:13;;;;;;;1.60;1.60;;;;;;;16.59;69.03;96687.84;5044065;28;20071;-60
2023/05/22 01:29:42;;;;;;;1.50;1.50;;;;;;;16.71;69.18;96678.09;5058814;28;20439;-60
2023/05/22 01:32:11;;;;;;;1.50;1.50;;;;;;;16.70;69.08;96670.13;5043420;28;20053;-59
2023/05/22 01:34:43;;;;;;;1.48;1.48;;;;;;;16.72;69.99;96673.31;5043997;28;20056;-60
2023/05/22 01:37:12;;;;;;;1.60;1.60;;;;;;;16.54;69.74;96635.19;5043299;28;20516;-60
2023/05/22 01:39:39;;;;;;;1.50;1.50;;;;;;;16.89;70.60;96672.28;5043982;28;20064;-60
2023/05/22 01:42:06;;;;;;;1.50;1.50;;;;;;;16.87;70.33;96669.09;5041926;28;20524;-60
2023/05/22 01:44:33;;;;;;;1.60;1.60;;;;;;;16.98;70.04;96667.75;5043461;28;20056;-59
2023/05/22 01:47:03;;;;;;;1.52;1.52;;;;;;;16.94;69.60;96669.00;5043534;28;20127;-59
2023/05/22 01:49:32;;;;;;;1.65;1.65;;;;;;;16.94;70.73;96663.41;5043647;28;20049;-60
2023/05/22 01:52:18;;;;;;;1.60;1.60;;;;;;;16.94;70.66;96664.22;5043603;28;20049;-60
2023/05/22 01:54:51;;;;;;;1.70;1.70;;;;;;;16.81;71.15;96656.78;5043706;28;20048;-60
2023/05/22 01:57:26;;;;;;;1.48;1.48;;;;;;;16.81;70.32;96652.00;5043245;28;20056;-60
2023/05/22 02:00:06;;;;;;;1.70;1.70;;;;;;;16.91;70.95;96658.66;5043310;28;20574;-59
2023/05/22 02:02:35;;;;;;;1.60;1.60;;;;;;;16.48;70.79;96580.94;5044661;28;20057;-59
2023/05/22 02:05:04;;;;;;;1.60;1.60;;;;;;;17.04;70.74;96651.28;5047235;28;20056;-60
2023/05/22 02:07:36;;;;;;;1.60;1.60;;;;;;;17.02;70.35;96659.31;5045715;28;20057;-60
2023/05/22 02:10:06;;;;;;;1.70;1.70;;;;;;;17.01;70.98;96657.72;5047158;28;20048;-59
2023/05/22 02:12:34;;;;;;;1.60;1.60;;;;;;;17.08;71.07;96657.63;5047263;28;20059;-59
2023/05/22 02:15:01;;;;;;;1.60;1.60;;;;;;;16.71;71.33;96582.22;5047071;28;20048;-61
2023/05/22 02:17:27;;;;;;;1.67;1.67;;;;;;;17.15;71.04;96665.91;4864367;28;5001118;-59
2023/05/22 02:19:54;;;;;;;1.60;1.60;;;;;;;17.08;71.50;96657.63;5039935;28;20056;-59
2023/05/22 02:22:21;;;;;;;1.67;1.67;;;;;;;17.06;71.66;96654.44;5047174;28;20512;-61
2023/05/22 02:24:48;;;;;;;1.65;1.65;;;;;;;16.84;72.13;96597.19;5047347;28;20045;-59
2023/05/22 02:27:16;;;;;;;1.70;1.70;;;;;;;16.80;74.02;96646.81;5047072;28;20060;-61
2023/05/22 02:29:42;;;;;;;1.70;1.70;;;;;;;16.77;73.20;96653.25;5047254;28;20053;-60
2023/05/22 02:32:09;;;;;;;1.52;1.52;;;;;;;16.67;74.63;96666.19;5046756;28;20078;-59
2023/05/22 02:34:37;;;;;;;1.60;1.60;;;;;;;16.59;74.53;96671.06;5046740;28;20764;-60
2023/05/22 02:37:04;;;;;;;1.58;1.58;;;;;;;16.46;74.56;96630.88;5046675;28;20056;-60
2023/05/22 02:39:31;;;;;;;1.40;1.40;;;;;;;16.37;75.98;96647.34;5045256;28;20048;-60
2023/05/22 02:41:57;;;;;;;1.58;1.58;;;;;;;16.03;77.19;96615.00;5046490;28;20068;-60
2023/05/22 02:44:24;;;;;;;1.40;1.40;;;;;;;16.08;77.69;96651.66;5046606;28;20064;-60
2023/05/22 02:46:51;;;;;;;1.30;1.30;;;;;;;16.12;78.34;96654.44;5046042;28;20052;-59
2023/05/22 02:49:17;;;;;;;1.55;1.55;;;;;;;16.14;77.77;96655.59;5045523;28;20045;-59
2023/05/22 02:51:46;;;;;;;1.40;1.40;;;;;;;16.13;77.44;96654.00;5045326;28;20059;-60
2023/05/22 02:54:14;;;;;;;1.40;1.40;;;;;;;16.06;78.42;96648.50;5055583;28;20495;-60
2023/05/22 02:56:42;;;;;;;1.33;1.33;;;;;;;15.88;79.25;96642.31;5064666;28;20462;-60
2023/05/22 02:59:09;;;;;;;1.50;1.50;;;;;;;15.78;79.74;96651.56;5064972;28;20048;-60
2023/05/22 03:01:37;;;;;;;1.50;1.50;;;;;;;15.89;79.02;96649.47;5064879;28;20507;-59
2023/05/22 03:04:05;;;;;;;1.20;1.20;;;;;;;15.84;79.44;96655.50;5066473;28;20048;-60
2023/05/22 03:06:33;;;;;;;1.50;1.50;;;;;;;15.24;80.99;96596.59;5066064;28;20618;-60
2023/05/22 03:09:02;;;;;;;1.40;1.40;;;;;;;15.57;81.30;96660.13;5066686;28;20288;-60
2023/05/22 03:11:33;;;;;;;1.50;1.50;;;;;;;15.50;81.74;96654.63;5064218;28;20090;-61
2023/05/22 03:13:59;;;;;;;1.30;1.30;;;;;;;15.71;80.41;96660.00;5065766;28;20496;-60
2023/05/22 03:16:26;;;;;;;1.40;1.40;;;;;;;15.34;81.24;96611.66;5066026;28;20055;-59
2023/05/22 03:19:10;;;;;;;1.50;1.50;;;;;;;15.65;81.70;96661.66;5065892;28;20048;-59
2023/05/22 03:21:38;;;;;;;1.40;1.40;;;;;;;15.54;81.78;96655.38;5064204;28;20044;-59
2023/05/22 03:24:05;;;;;;;1.30;1.30;;;;;;;15.21;83.58;96636.47;5066264;28;20499;-59
2023/05/22 03:26:32;;;;;;;1.40;1.40;;;;;;;15.26;84.00;96650.00;5065513;28;20048;-60
2023/05/22 03:28:58;;;;;;;1.40;1.40;;;;;;;15.12;83.99;96627.78;5065893;28;20051;-59
2023/05/22 03:31:28;;;;;;;1.30;1.30;;;;;;;15.54;81.92;96655.38;5063882;28;20084;-60
2023/05/22 03:33:54;;;;;;;1.30;1.30;;;;;;;15.56;81.58;96652.97;5064101;28;20052;-60
2023/05/22 03:36:22;;;;;;;1.40;1.40;;;;;;;15.38;81.29;96626.41;5065402;28;20431;-59
2023/05/22 03:38:48;;;;;;;1.30;1.30;;;;;;;15.54;82.53;96647.00;5063759;28;20048;-60
2023/05/22 03:41:15;;;;;;;1.30;1.30;;;;;;;15.56;81.71;96630.66;5065593;28;20049;-59
2023/05/22 03:43:42;;;;;;;1.48;1.48;;;;;;;15.64;82.50;96643.34;5065408;28;20404;-59
2023/05/22 03:46:10;;;;;;;1.30;1.30;;;;;;;15.29;81.94;96585.00;5065136;28;20052;-59
2023/05/22 03:48:38;;;;;;;1.40;1.40;;;;;;;15.61;82.54;96621.81;5065378;28;20090;-60
2023/05/22 03:51:05;;;;;;;1.33;1.33;;;;;;;15.84;82.37;96652.72;5065130;28;20059;-59
2023/05/22 03:53:31;;;;;;;1.50;1.50;;;;;;;15.97;80.86;96639.81;5065287;28;20052;-60
2023/05/22 03:55:58;;;;;;;1.50;1.50;;;;;;;15.72;81.49;96610.53;5065326;28;20052;-59
2023/05/22 03:58:25;;;;;;;1.50;1.50;;;;;;;16.09;81.42;96647.66;5065359;28;20052;-60
2023/05/22 04:00:54;;;;;;;1.40;1.40;;;;;;;15.85;79.39;96614.41;5065674;28;20056;-61
2023/05/22 04:03:21;;;;;;;1.50;1.50;;;;;;;16.14;79.82;96652.78;5065986;28;20057;-60
2023/05/22 04:05:48;;;;;;;1.50;1.50;;;;;;;16.11;79.60;96650.84;5065273;28;20098;-59
2023/05/22 04:08:14;;;;;;;1.55;1.55;;;;;;;16.17;79.68;96654.75;5064790;28;21366;-59
2023/05/22 04:10:45;;;;;;;1.50;1.50;;;;;;;16.37;79.14;96655.75;5063317;28;20084;-60
2023/05/22 04:13:12;;;;;;;1.48;1.48;;;;;;;16.41;77.90;96653.69;5064927;28;20139;-60
2023/05/22 04:15:44;;;;;;;1.50;1.50;;;;;;;15.90;77.92;96584.00;5065258;28;20072;-60
2023/05/22 04:18:11;;;;;;;1.45;1.45;;;;;;;16.55;78.20;96656.31;5065119;28;20051;-60
2023/05/22 04:20:39;;;;;;;1.30;1.30;;;;;;;16.70;76.95;96654.16;5064755;28;20439;-59
2023/05/22 04:23:06;;;;;;;1.60;1.60;;;;;;;16.79;77.10;96646.03;5064590;28;20564;-60
2023/05/22 04:25:33;;;;;;;1.65;1.65;;;;;;;17.13;75.10;96654.34;5064294;28;20135;-59
2023/05/22 04:28:02;;;;;;;1.67;1.67;;;;;;;17.41;74.14;96654.72;5064345;28;20075;-59
2023/05/22 04:30:32;;;;;;;1.70;1.70;;;;;;;17.19;70.29;96593.88;5064206;28;20596;-59
2023/05/22 04:33:00;;;;;;;1.58;1.58;;;;;;;18.00;70.27;96660.53;5063712;28;20052;-59
2023/05/22 04:35:28;;;;;;;1.83;1.83;;;;;;;18.16;69.01;96660.63;5063212;28;20118;-59
2023/05/22 04:38:01;;;;;;;1.58;1.58;;;;;;;18.58;66.32;96657.03;5064251;28;20107;-59
2023/05/22 04:40:29;;;;;;;1.70;1.70;;;;;;;18.90;66.76;96651.53;5064799;28;20083;-58
2023/05/22 04:42:58;;;;;;;1.90;1.90;;;;;;;18.96;64.22;96655.41;5063112;28;20145;-60
2023/05/22 04:45:27;;;;;;;2.10;2.10;;;;;;;18.95;63.45;96651.00;5064357;28;20056;-59
2023/05/22 04:47:54;;;;;;;1.83;1.83;;;;;;;19.06;60.33;96657.16;5064358;28;20051;-59
2023/05/22 04:50:22;;;;;;;1.73;1.73;;;;;;;19.14;58.32;96655.78;5062826;28;20056;-59
2023/05/22 04:52:49;;;;;;;1.70;1.70;;;;;;;19.12;58.78;96661.06;5062845;28;20139;-59
2023/05/22 04:55:17;;;;;;;1.90;1.90;;;;;;;18.77;59.84;96659.03;5062493;28;20059;-59
2023/05/22 04:57:46;;;;;;;1.70;1.70;;;;;;;18.60;60.58;96663.00;5064417;28;20051;-58
2023/05/22 05:00:15;;;;;;;1.70;1.70;;;;;;;18.56;60.84;96667.88;5064360;28;20059;-59
2023/05/22 05:02:42;;;;;;;1.85;1.85;;;;;;;18.63;60.54;96650.91;5062419;28;20135;-59
2023/05/22 05:05:09;;;;;;;2.00;2.00;;;;;;;18.68;60.21;96666.44;5064150;28;20048;-59
2023/05/22 05:07:37;;;;;;;1.95;1.95;;;;;;;18.99;60.45;96645.31;5064122;28;20044;-60
2023/05/22 05:10:05;;;;;;;1.90;1.90;;;;;;;19.29;61.30;96665.50;5064091;28;20052;-60
2023/05/22 05:12:31;;;;;;;1.90;1.90;;;;;;;18.93;58.72;96663.91;5063903;28;20048;-58
2023/05/22 05:14:58;;;;;;;1.83;1.83;;;;;;;18.98;59.19;96636.13;5062642;28;20048;-59
2023/05/22 05:17:25;;;;;;;1.80;1.80;;;;;;;19.51;58.50;96657.38;5063731;28;20066;-60
2023/05/22 05:19:52;;;;;;;1.90;1.90;;;;;;;19.42;58.21;96658.00;5062599;28;20086;-59
2023/05/22 05:22:18;;;;;;;1.83;1.83;;;;;;;18.98;57.94;96548.31;5063779;28;20110;-59
2023/05/22 05:24:45;;;;;;;2.00;2.00;;;;;;;19.98;56.22;96671.88;5065614;28;20056;-59
2023/05/22 05:27:12;;;;;;;1.90;1.90;;;;;;;20.01;55.84;96676.59;5082360;28;20044;-60
2023/05/22 05:29:40;;;;;;;1.85;1.85;;;;;;;19.47;56.39;96663.06;5082454;28;20148;-59
2023/05/22 05:32:07;;;;;;;2.00;2.00;;;;;;;19.73;56.69;96674.53;5083554;28;20052;-59
2023/05/22 05:34:34;;;;;;;2.08;2.08;;;;;;;19.65;57.05;96665.44;5083615;28;20052;-59
2023/05/22 05:37:01;;;;;;;1.90;1.90;;;;;;;19.98;56.10;96649.38;5084515;28;20219;-59
2023/05/22 05:39:28;;;;;;;2.08;2.08;;;;;;;20.16;56.65;96652.53;5086506;28;20048;-59
2023/05/22 05:41:55;;;;;;;2.00;2.00;;;;;;;20.37;56.87;96654.78;5086529;28;20074;-60
2023/05/22 05:44:21;;;;;;;2.30;2.30;;;;;;;20.59;54.29;96669.81;5081052;28;20063;-59
2023/05/22 05:46:48;;;;;;;2.42;2.33;;;;;;;20.12;53.79;96654.63;5086901;28;20056;-59
2023/05/22 05:49:15;;;;;;;1.90;1.90;;;;;;;19.25;56.12;96540.41;5073735;27;20539;-59
2023/05/22 05:51:42;;;;;;;2.10;2.10;;;;;;;20.13;56.14;96667.44;5070254;28;20048;-55
2023/05/22 05:54:08;;;;;;;2.20;2.20;;;;;;;20.51;55.75;96671.25;5068090;28;20063;-60
2023/05/22 05:56:35;;;;;;;1.80;1.80;;;;;;;18.36;54.01;96347.34;5081000;28;20040;-61
2023/05/22 05:59:03;;;;;;;2.00;2.00;;;;;;;18.65;53.77;96333.44;5087809;28;20045;-62
2023/05/22 06:01:32;;;;;;;2.08;2.08;;;;;;;20.42;54.24;96628.91;5087409;28;20040;-60
2023/05/22 06:04:01;;;;;;;1.83;1.83;;;;;;;20.34;56.18;96611.44;5087463;28;20048;-61
2023/05/22 06:06:35;;;;;;;2.00;2.00;;;;;;;20.76;53.29;96610.19;5086305;28;20056;-60
2023/05/22 06:09:05;;;;;;;2.10;2.10;;;;;;;21.48;52.97;96652.66;5082682;28;20086;-60
2023/05/22 06:11:32;;;;;;;2.17;2.17;;;;;;;21.84;52.69;96666.41;5095106;28;20063;-58
2023/05/22 06:14:03;;;;;;;2.60;2.50;;;;;;;21.77;53.09;96664.63;5067512;28;20506;-57
2023/05/22 06:16:30;;;;;;;2.00;2.00;;;;;;;21.02;53.32;96667.38;5071953;28;20047;-56
2023/05/22 06:18:58;;;;;;;2.05;2.05;;;;;;;20.94;53.86;96671.63;5068430;28;20052;-59
2023/05/22 06:21:25;;;;;;;2.08;2.08;;;;;;;21.34;53.09;96666.41;5073147;28;20634;-59
2023/05/22 06:23:52;;;;;;;1.73;1.73;;;;;;;20.74;54.90;96648.47;5086087;28;20066;-58
2023/05/22 06:26:19;;;;;;;2.00;2.00;;;;;;;21.19;54.06;96626.63;5077871;28;20067;-58
2023/05/22 06:28:45;;;;;;;2.10;2.10;;;;;;;21.60;53.60;96668.78;5069341;28;20078;-57
2023/05/22 06:31:13;;;;;;;1.95;1.95;;;;;;;20.93;54.75;96672.84;5080310;28;20062;-57
2023/05/22 06:33:41;;;;;;;2.50;2.40;;;;;;;21.12;53.78;96655.00;5065933;28;20063;-57
2023/05/22 06:36:10;;;;;;;1.88;1.88;;;;;;;21.31;53.62;96685.00;5076382;28;20049;-59
2023/05/22 06:38:38;;;;;;;2.10;2.10;;;;;;;21.30;52.52;96666.53;5066367;28;20044;-57
2023/05/22 06:41:04;;;;;;;2.05;2.05;;;;;;;21.09;53.83;96667.16;5069615;28;20306;-58
2023/05/22 06:43:31;;;;;;;2.13;2.13;;;;;;;21.11;54.01;96659.06;5085478;28;20087;-59
2023/05/22 06:45:58;;;;;;;2.42;2.33;;;;;;;21.54;53.82;96658.50;5084118;28;20048;-60
2023/05/22 06:48:25;;;;;;;2.38;2.33;;;;;;;21.57;54.37;96664.03;5068881;28;20474;-60
2023/05/22 06:50:51;;;;;;;2.17;2.17;;;;;;;21.38;53.43;96669.91;5081607;28;20139;-60
2023/05/22 06:53:18;;;;;;;2.30;2.30;;;;;;;21.44;55.11;96670.91;5085261;28;20044;-59
2023/05/22 06:55:45;;;;;;;2.30;2.30;;;;;;;21.81;53.88;96665.31;5070045;28;20049;-60
2023/05/22 06:58:11;;;;;;;2.40;2.33;;;;;;;21.79;52.62;96625.50;5076947;28;20515;-59
2023/05/22 07:00:38;;;;;;;2.28;2.28;;;;;;;21.94;53.20;96665.28;5077900;28;20050;-61
2023/05/22 07:03:05;;;;;;;2.10;2.10;;;;;;;21.77;54.04;96670.25;5072460;28;20507;-62
2023/05/22 07:05:32;;;;;;;2.58;2.47;;;;;;;21.85;52.65;96668.00;5067527;28;20513;-59
2023/05/22 07:08:00;;;;;;;2.70;2.60;;;;;;;21.50;54.15;96669.91;5081281;28;20575;-56
2023/05/22 07:10:26;;;;;;;2.33;2.28;;;;;;;22.16;53.66;96666.91;5084665;28;20040;-56
2023/05/22 07:12:53;;;;;;;2.20;2.20;;;;;;;21.68;53.74;96539.63;5077450;28;20044;-58
2023/05/22 07:15:20;;;;;;;2.25;2.25;;;;;;;22.90;51.86;96663.47;5076669;28;20060;-60
2023/05/22 07:17:47;;;;;;;2.13;2.13;;;;;;;22.32;51.31;96629.25;5072000;28;20151;-56
2023/05/22 07:20:15;;;;;;;2.40;2.30;;;;;;;22.65;51.10;96624.09;5083585;28;20048;-58
2023/05/22 07:22:42;;;;;;;2.38;2.30;;;;;;;22.63;52.76;96660.44;5080216;28;20127;-61
2023/05/22 07:25:09;;;;;;;2.67;2.58;;;;;;;22.31;52.27;96675.69;5073388;28;20074;-62
2023/05/22 07:27:35;;;;;;;2.35;2.33;;;;;;;22.31;51.39;96650.28;5086176;28;20047;-62
2023/05/22 07:30:02;;;;;;;2.47;2.38;;;;;;;22.35;52.59;96673.53;5084335;28;20063;-59
2023/05/22 07:32:29;;;;;;;2.20;2.20;;;;;;;22.49;52.20;96670.97;5085067;28;20060;-59
2023/05/22 07:34:56;;;;;;;2.50;2.40;;;;;;;21.59;52.37;96622.06;5084290;28;20051;-57
2023/05/22 07:37:23;;;;;;;2.20;2.20;;;;;;;22.31;52.15;96659.53;5073830;28;20431;-58
2023/05/22 07:39:49;;;;;;;2.22;2.22;;;;;;;23.24;51.46;96677.50;5066569;28;20131;-61
2023/05/22 07:42:16;;;;;;;2.58;2.47;;;;;;;23.03;50.46;96650.06;5085585;28;20044;-58
2023/05/22 07:44:43;;;;;;;2.53;2.42;;;;;;;23.61;49.21;96668.00;5085600;28;20048;-59
2023/05/22 07:47:09;;;;;;;2.97;2.88;;;;;;;23.69;49.74;96670.09;5080923;28;20048;-61
2023/05/22 07:49:36;;;;;;;2.72;2.63;;;;;;;23.68;49.47;96625.25;5085473;28;20048;-59
2023/05/22 07:52:03;;;;;;;2.85;2.75;;;;;;;24.15;48.37;96679.53;5085376;28;20923;-57
2023/05/22 07:54:29;;;;;;;2.72;2.63;;;;;;;24.50;47.71;96677.22;5079119;28;20587;-57
2023/05/22 07:56:56;;;;;;;2.92;2.83;;;;;;;24.61;47.70;96669.78;5066944;28;20052;-56
2023/05/22 07:59:24;;;;;;;3.03;2.92;;;;;;;24.61;45.73;96635.81;5065050;28;20056;-59
2023/05/22 08:01:51;;;;;;;3.00;2.90;;;;;;;25.23;45.19;96668.19;5084465;28;20416;-60
2023/05/22 08:04:17;;;;;;;2.80;2.70;;;;;;;25.35;44.44;96674.19;5082993;28;20080;-60
2023/05/22 08:06:44;;;;;;;3.10;3.00;;;;;;;25.68;44.34;96658.00;5073990;28;20097;-61
2023/05/22 08:09:11;;;;;;;3.38;3.28;;;;;;;25.85;43.64;96656.34;5064978;28;20320;-61
2023/05/22 08:11:40;;;;;;;3.40;3.30;;;;;;;25.62;44.80;96655.03;5079446;28;20045;-56
2023/05/22 08:14:08;;;;;;;3.58;3.47;;;;;;;25.05;45.67;96659.72;5080327;28;20060;-60
2023/05/22 08:16:35;;;;;;;3.42;3.33;;;;;;;25.32;45.31;96665.34;5076066;28;20072;-61
2023/05/22 08:19:02;;;;;;;3.55;3.45;;;;;;;25.48;44.73;96644.38;5083888;28;20494;-56
2023/05/22 08:21:29;;;;;;;3.30;3.20;;;;;;;26.15;44.14;96658.88;5080914;28;20040;-61
2023/05/22 08:23:55;;;;;;;3.95;3.85;;;;;;;26.59;42.64;96670.41;5084851;28;20494;-61
2023/05/22 08:26:22;;;;;;;3.78;3.67;;;;;;;26.12;43.55;96659.06;5070900;28;20043;-64
2023/05/22 08:28:49;;;;;;;3.80;3.70;;;;;;;25.58;43.91;96611.06;5084471;28;20055;-59
2023/05/22 08:31:16;;;;;;;3.55;3.45;;;;;;;25.63;42.97;96672.84;5065961;28;20053;-58
2023/05/22 08:33:43;;;;;;;3.58;3.47;;;;;;;25.44;44.74;96657.13;5071890;28;20526;-62
2023/05/22 08:36:10;;;;;;;3.20;3.10;;;;;;;25.71;43.47;96620.16;5075951;28;20052;-62
2023/05/22 08:38:36;;;;;;;3.60;3.50;;;;;;;26.20;42.44;96637.56;5066627;28;20059;-61
2023/05/22 08:41:05;;;;;;;3.38;3.28;;;;;;;25.76;42.45;96699.75;5081669;28;20056;-61
2023/05/22 08:43:32;;;;;;;3.00;2.90;;;;;;;24.11;45.34;96652.59;5083226;28;20268;-63
2023/05/22 08:46:02;;;;;;;3.05;2.95;;;;;;;23.68;46.69;96656.38;5066710;28;20079;-62
2023/05/22 08:48:30;;;;;;;2.65;2.55;;;;;;;23.65;47.70;96662.97;5084521;28;20060;-61
2023/05/22 08:51:02;;;;;;;3.20;3.10;;;;;;;23.95;45.23;96667.78;5077958;28;20048;-62
2023/05/22 08:53:35;;;;;;;2.97;2.88;;;;;;;24.28;45.39;96656.72;5063993;28;20052;-63
2023/05/22 08:56:05;;;;;;;2.90;2.80;;;;;;;22.34;47.38;96571.13;5063728;28;20114;-63
2023/05/22 08:58:34;;;;;;;2.60;2.50;;;;;;;22.73;48.12;96656.47;5070604;28;20086;-59
2023/05/22 09:01:03;;;;;;;2.50;2.40;;;;;;;22.17;47.46;96566.13;5082284;28;20123;-61
2023/05/22 09:03:33;;;;;;;2.80;2.70;;;;;;;22.65;47.12;96610.75;5082878;28;20055;-61
2023/05/22 09:06:01;;;;;;;2.80;2.70;;;;;;;23.37;46.76;96647.16;5083975;28;20044;-60
2023/05/22 09:08:28;;;;;;;2.95;2.85;;;;;;;23.44;46.00;96644.03;5063819;28;20057;-60
2023/05/22 09:10:55;;;;;;;2.83;2.72;;;;;;;23.07;48.16;96640.22;5075839;28;20050;-60
2023/05/22 09:13:26;;;;;;;2.90;2.80;;;;;;;23.18;49.65;96653.91;5076971;28;20064;-61
2023/05/22 09:15:57;;;;;;;2.70;2.60;;;;;;;23.35;49.07;96655.28;5062903;28;20157;-61
2023/05/22 09:18:27;;;;;;;2.60;2.50;;;;;;;22.48;49.15;96625.50;5072616;28;20052;-60
2023/05/22 09:20:56;;;;;;;2.65;2.55;;;;;;;22.46;50.48;96659.84;5061637;28;20135;-60
2023/05/22 09:23:24;;;;;;;2.20;2.20;;;;;;;22.68;50.94;96645.75;5061365;28;20049;-60
2023/05/22 09:25:54;;;;;;;2.33;2.28;;;;;;;22.02;51.17;96560.19;5063018;28;20048;-61
2023/05/22 09:28:22;;;;;;;2.78;2.67;;;;;;;22.68;48.91;96572.34;5080883;28;20101;-61
2023/05/22 09:30:50;;;;;;;2.67;2.58;;;;;;;23.21;49.36;96644.50;5078846;28;20514;-61
2023/05/22 09:33:17;;;;;;;2.50;2.40;;;;;;;23.48;47.86;96639.03;5079257;28;20066;-61
2023/05/22 09:35:50;;;;;;;3.00;2.90;;;;;;;23.23;45.68;96642.81;5076486;28;20056;-60
2023/05/22 09:38:17;;;;;;;2.73;2.63;;;;;;;22.64;46.80;96560.38;5063191;28;20146;-62
2023/05/22 09:40:44;;;;;;;2.60;2.50;;;;;;;23.30;47.10;96631.25;5063698;28;20050;-61
2023/05/22 09:43:11;;;;;;;2.50;2.40;;;;;;;23.06;46.26;96632.19;5071479;28;20431;-61
2023/05/22 09:45:38;;;;;;;2.83;2.72;;;;;;;23.21;45.65;96633.22;5082955;28;20052;-61
2023/05/22 09:48:05;;;;;;;3.08;2.97;;;;;;;23.79;46.44;96628.44;5076211;28;20080;-58
2023/05/22 09:50:32;;;;;;;3.05;2.95;;;;;;;24.15;45.22;96607.97;5076644;28;20067;-61
2023/05/22 09:53:03;;;;;;;2.80;2.70;;;;;;;23.99;44.88;96634.50;5071222;28;20092;-60
2023/05/22 09:55:31;;;;;;;3.00;2.90;;;;;;;24.33;42.35;96628.56;5077220;28;20070;-59
2023/05/22 09:58:03;;;;;;;2.95;2.85;;;;;;;23.95;43.08;96625.34;5083020;28;20114;-61
2023/05/22 10:00:33;;;;;;;2.72;2.63;;;;;;;24.14;42.69;96621.31;5083311;28;20130;-61
2023/05/22 10:03:07;;;;;;;3.17;3.08;;;;;;;24.69;41.51;96619.34;5077057;28;20530;-59
2023/05/22 10:05:36;;;;;;;2.92;2.83;;;;;;;24.39;43.15;96625.91;5063123;28;20114;-58
2023/05/22 10:08:26;;;;;;;3.25;3.15;;;;;;;24.37;41.95;96617.09;5063497;28;20491;-58
2023/05/22 10:10:53;;;;;;;2.90;2.80;;;;;;;24.80;43.58;96617.56;5063290;28;20122;-60
2023/05/22 10:13:21;;;;;;;3.20;3.10;;;;;;;25.71;41.54;96611.63;5062863;28;20163;-61
2023/05/22 10:15:48;;;;;;;3.17;3.08;;;;;;;25.27;41.46;96620.63;5062850;28;20052;-62
2023/05/22 10:18:16;;;;;;;3.22;3.13;;;;;;;24.95;42.59;96578.81;5062897;28;20053;-61
2023/05/22 10:20:45;;;;;;;3.15;3.05;;;;;;;24.81;43.37;96615.53;5062981;28;20060;-62
2023/05/22 10:23:15;;;;;;;3.38;3.28;;;;;;;24.49;43.00;96574.47;5063578;28;20064;-59
2023/05/22 10:25:43;;;;;;;3.20;3.10;;;;;;;24.17;43.14;96583.56;5065633;28;20106;-62
2023/05/22 10:28:12;;;;;;;2.97;2.88;;;;;;;23.73;44.79;96573.75;5070014;28;20094;-59
2023/05/22 10:30:39;;;;;;;2.90;2.80;;;;;;;23.90;44.88;96617.47;5072882;28;20082;-61
2023/05/22 10:33:21;;;;;;;2.72;2.63;;;;;;;23.50;45.99;96616.72;5079092;28;20143;-60
2023/05/22 10:35:52;;;;;;;3.00;2.90;;;;;;;23.16;47.00;96560.31;5082505;28;20063;-61
2023/05/22 10:38:25;;;;;;;2.95;2.85;;;;;;;23.44;46.01;96613.72;5076652;28;20067;-61
2023/05/22 10:40:52;;;;;;;2.95;2.85;;;;;;;22.88;46.57;96564.28;5066624;28;20071;-61
2023/05/22 10:43:21;;;;;;;2.75;2.65;;;;;;;23.67;47.02;96601.06;5075494;28;20052;-62
2023/05/22 10:45:48;;;;;;;3.17;3.08;;;;;;;23.36;45.59;96606.00;5085249;28;20267;-59
2023/05/22 10:48:20;;;;;;;2.60;2.50;;;;;;;22.99;46.83;96588.06;5085016;28;20128;-63
2023/05/22 10:50:53;;;;;;;2.72;2.63;;;;;;;22.31;45.95;96531.75;5085890;28;20054;-62
2023/05/22 10:53:25;;;;;;;2.63;2.53;;;;;;;22.74;46.04;96570.47;5085510;28;20055;-61
2023/05/22 10:55:56;;;;;;;2.92;2.83;;;;;;;23.04;46.44;96595.13;5079906;28;20055;-61
2023/05/22 10:58:33;;;;;;;2.70;2.60;;;;;;;23.27;47.27;96580.50;5085092;28;20546;-60
2023/05/22 11:01:17;;;;;;;2.80;2.70;;;;;;;23.47;47.34;96578.09;5082741;28;20074;-60
2023/05/22 11:04:01;;;;;;;2.75;2.65;;;;;;;23.61;47.41;96537.91;5066225;28;20098;-61
2023/05/22 11:06:38;;;;;;;2.97;2.88;;;;;;;24.15;44.84;96583.28;5075885;28;20372;-60
2023/05/22 11:09:31;;;;;;;2.80;2.70;;;;;;;23.88;45.09;96557.75;5067908;28;20582;-60
2023/05/22 11:12:23;;;;;;;3.20;3.10;;;;;;;23.00;46.25;96560.59;5065701;28;20053;-60
2023/05/22 11:15:17;;;;;;;2.95;2.85;;;;;;;23.46;46.45;96563.16;5075802;28;20071;-62
2023/05/22 11:17:50;;;;;;;2.95;2.85;;;;;;;23.13;45.72;96564.09;5064995;28;20071;-62
2023/05/22 11:20:21;;;;;;;2.70;2.60;;;;;;;23.29;46.55;96566.69;5073484;28;20056;-62
2023/05/22 11:23:04;;;;;;;2.80;2.70;;;;;;;23.43;46.67;96543.50;5080297;28;20043;-61
2023/05/22 11:25:33;;;;;;;2.67;2.58;;;;;;;23.94;46.95;96567.19;5080738;28;20045;-60
2023/05/22 11:28:04;;;;;;;2.72;2.63;;;;;;;23.81;46.22;96566.53;5083538;28;20097;-61
2023/05/22 11:30:33;;;;;;;2.72;2.63;;;;;;;24.16;46.71;96565.03;5085852;28;20044;-60
2023/05/22 11:33:01;;;;;;;2.83;2.72;;;;;;;24.39;46.14;96558.72;5085106;28;20091;-60
2023/05/22 11:35:28;;;;;;;2.90;2.80;;;;;;;24.60;46.19;96574.75;5085637;28;20058;-62
2023/05/22 11:37:55;;;;;;;2.90;2.80;;;;;;;24.14;47.67;96570.38;5085638;28;20060;-61
2023/05/22 11:40:24;;;;;;;3.03;2.92;;;;;;;24.13;47.36;96573.66;5071439;28;20075;-61
2023/05/22 11:42:52;;;;;;;2.90;2.80;;;;;;;22.43;47.37;96461.09;5065307;28;20076;-59